createdAt,value
2023-01-26T14:19:09.551Z,1.74
2023-01-26T14:29:21.722Z,1.64
2023-01-26T14:39:23.563Z,1.35
2023-01-26T14:49:42.987Z,1.13
2023-01-26T14:59:52.361Z,1.23
2023-01-26T15:09:59.308Z,1.09
2023-01-26T15:20:01.207Z,1.16
2023-01-26T15:30:06.838Z,1.02
2023-01-26T15:40:11.005Z,1.07
2023-01-26T15:50:27.448Z,1.06
2023-01-26T16:00:37.179Z,1.20
2023-01-26T16:10:38.966Z,1.18
2023-01-26T16:20:43.350Z,1.11
2023-01-26T16:30:46.957Z,1.16
2023-01-26T16:40:49.519Z,1.18
2023-01-26T16:50:53.631Z,1.20
2023-01-26T17:00:55.970Z,1.13
2023-01-26T17:11:02.573Z,1.01
2023-01-26T17:21:05.946Z,1.08
2023-01-26T17:31:12.281Z,0.94
2023-01-26T17:41:20.844Z,0.98
2023-01-26T17:51:23.805Z,0.76
2023-01-26T18:01:27.162Z,0.99
2023-01-26T18:11:29.300Z,0.94
2023-01-26T18:21:37.606Z,0.72
2023-01-26T18:31:47.553Z,0.91
2023-01-26T18:41:49.471Z,1.02
2023-01-26T19:50:19.458Z,1.10
2023-01-26T20:00:22.819Z,1.09
2023-01-26T20:10:29.339Z,1.15
2023-01-26T20:20:34.119Z,1.07
2023-01-26T20:30:37.474Z,1.01
2023-01-26T20:40:41.477Z,0.64
2023-01-26T20:50:46.169Z,0.59
2023-01-26T21:00:49.424Z,0.50
2023-01-26T21:10:53.670Z,0.67
2023-01-26T21:21:07.177Z,0.79
2023-01-26T21:31:11.834Z,0.89
2023-01-26T21:41:38.361Z,0.81
2023-01-26T21:51:59.545Z,0.80
2023-01-26T22:02:02.534Z,0.85
2023-01-26T22:12:05.129Z,0.64
2023-01-26T22:22:07.392Z,0.73
2023-01-26T22:32:09.106Z,0.53
2023-01-26T22:42:11.568Z,0.68
2023-01-26T22:52:15.811Z,0.54
2023-01-26T23:02:17.504Z,0.43
2023-01-26T23:12:19.314Z,0.41
2023-01-26T23:22:23.955Z,0.78
2023-01-26T23:32:25.750Z,0.86
2023-01-26T23:42:44.385Z,0.73
2023-01-26T23:53:06.278Z,0.79
